Lyonsville, New York
Current Conditions -  °F | °C
As of 11:38 PM on Tuesday 21 Oct 2014 (Local Time) from KMGJ Reporting Station
Moderate Rain Moderate Rain  
Wind Chill: 52°   Ceiling: 3500
Heat Index: 52°   Visibility: 4mi
Dew Point: 50°   Wind: 10mph
Humidity: 93%   Direction: 30°NNE
Pressure: 29.95"   Gusts: NA
Location:  41.8083°N, 74.2318°W
Report Text: KMGJ 220338Z AUTO 03009KT 4SM RA BR SCT006 BKN035 OVC055 11/10 A2995 RMK AO2 P0008 T01110100 TSNO
Loading
Personal Weather Stations






























Interactive Weather Map
Tropical Storm Tracking
New forecast layout! Learn more

10-Day Weather Forecast

Advertisements
Track Severe Weather on mobile